This is the latest recevied weather packets stored in our database for station/object W4DEX-2. If no packets are shown the sender has not sent any weather packets the latest 10 day(s).
| Time | Temp. | Humidity | Pressure | Rain* | Wind** | Luminosity | Snow |
|---|---|---|---|---|---|---|---|
| 1777691102 | 11.67° C | 79% | 1012.4 hPa | 0 mm | 5.36 m/s, 175° | - | - |
| 1777690802 | 11.67° C | 80% | 1012.4 hPa | 0 mm | 4.92 m/s, 176° | - | - |
| 1777690513 | 11.67° C | 80% | 1012.6 hPa | 0 mm | 4.92 m/s, 174° | - | - |
| 1777690202 | 11.67° C | 81% | 1012.2 hPa | 0 mm | 5.36 m/s, 177° | - | - |
| 1777689902 | 11.67° C | 81% | 1012.7 hPa | 0 mm | 4.92 m/s, 174° | - | - |
| 1777689302 | 11.67° C | 81% | 1012.7 hPa | 0 mm | 4.92 m/s, 177° | - | - |
| 1777689002 | 11.67° C | 81% | 1012.7 hPa | 0 mm | 4.92 m/s, 174° | - | - |
| 1777688703 | 11.67° C | 81% | 1012.7 hPa | 0 mm | 4.92 m/s, 174° | - | - |
| 1777688403 | 11.67° C | 81% | 1012.7 hPa | 0 mm | 5.36 m/s, 174° | - | - |
| 1777688111 | 11.67° C | 81% | 1012.6 hPa | 0 mm | 4.92 m/s, 174° | - | - |
| 1777687502 | 11.67° C | 81% | 1012.4 hPa | 0 mm | 5.36 m/s, 173° | - | - |
| 1777687202 | 11.67° C | 81% | 1012.4 hPa | 0 mm | 4.92 m/s, 178° | - | - |
| 1777686302 | 11.67° C | 80% | 1012.3 hPa | 0 mm | 4.92 m/s, 177° | - | - |
| 1777685402 | 11.67° C | 80% | 1012.3 hPa | 0 mm | 4.92 m/s, 175° | - | - |
| 1777685102 | 11.67° C | 80% | 1012.7 hPa | 0 mm | 4.47 m/s, 175° | - | - |
| 1777684803 | 11.67° C | 80% | 1012.6 hPa | 0 mm | 4.92 m/s, 177° | - | - |
| 1777684502 | 11.67° C | 80% | 1012.3 hPa | 0 mm | 4.92 m/s, 173° | - | - |
| 1777684202 | 11.67° C | 80% | 1012.3 hPa | 0 mm | 4.92 m/s, 173° | - | - |
| 1777683603 | 11.67° C | 80% | 1012.1 hPa | 0 mm | 5.36 m/s, 175° | - | - |
| 1777683302 | 11.67° C | 80% | 1012.3 hPa | 0 mm | 4.47 m/s, 173° | - | - |
| 1777682402 | 11.67° C | 79% | 1012 hPa | 0 mm | 4.92 m/s, 177° | - | - |
| 1777682102 | 11.67° C | 79% | 1011.8 hPa | 0 mm | 4.92 m/s, 174° | - | - |
| 1777681202 | 12.22° C | 78% | 1011.6 hPa | 0 mm | 4.92 m/s, 176° | - | - |
| 1777680902 | 12.22° C | 77% | 1011.6 hPa | 0 mm | 5.36 m/s, 174° | - | - |
| 1777680602 | 12.22° C | 76% | 1011.8 hPa | 0 mm | 4.92 m/s, 176° | - | - |
* Rain latest hour (hover to see other rain measurements)
** Current wind speed in m/s (hover to see current wind gust speed)